Time;durP1;ratioP1;P1;durP2;ratioP2;P2;SDS_P1;SDS_P2;PMS_P1;PMS_P2;Temp;Humidity;BMP_temperature;BMP_pressure;BME280_temperature;BME280_humidity;BME280_pressure;Samples;Min_cycle;Max_cycle;Signal;HPM_P1;HPM_P2
2023/08/04 00:01:56;;;;;;;;;;;;;;;;;;5034782;28;20386;-73
2023/08/04 00:04:22;;;;;;;;;;;;;;;;;;5018036;28;20336;-73
2023/08/04 00:06:49;;;;;;;;;;;;;;;;;;5033479;28;20414;-73
2023/08/04 00:09:16;;;;;;;;;;;;;;;;;;5028093;28;20179;-72
2023/08/04 00:11:46;;;;;;;;;;;;;;;;;;5036417;28;20014;-73
2023/08/04 00:14:13;;;;;;;;;;;;;;;;;;5033620;28;19943;-72
2023/08/04 00:16:41;;;;;;;;;;;;;;;;;;5037084;28;19916;-73
2023/08/04 00:19:07;;;;;;;;;;;;;;;;;;5049441;28;20529;-72
2023/08/04 00:21:35;;;;;;;;;;;;;;;;;;5018482;28;19932;-74
2023/08/04 00:24:03;;;;;;;;;;;;;;;;;;5050985;28;20828;-73
2023/08/04 00:26:28;;;;;;;;;;;;;;;;;;5033785;28;19924;-72
2023/08/04 00:28:56;;;;;;;;;;;;;;;;;;5042627;28;19966;-71
2023/08/04 00:31:21;;;;;;;;;;;;;;;;;;5034358;28;19916;-72
2023/08/04 00:33:49;;;;;;;;;;;;;;;;;;5018586;28;20665;-71
2023/08/04 00:36:14;;;;;;;;;;;;;;;;;;5035068;28;19934;-72
2023/08/04 00:38:40;;;;;;;;;;;;;;;;;;5037061;28;19920;-72
2023/08/04 00:41:05;;;;;;;;;;;;;;;;;;5037528;28;20452;-72
2023/08/04 00:43:35;;;;;;;;;;;;;;;;;;5056256;28;20096;-74
2023/08/04 00:46:01;;;;;;;;;;;;;;;;;;5035696;28;20782;-72
2023/08/04 00:48:28;;;;;;;;;;;;;;;;;;5037930;28;19920;-72
2023/08/04 00:50:54;;;;;;;;;;;;;;;;;;5036239;28;19920;-73
2023/08/04 00:53:21;;;;;;;;;;;;;;;;;;5021944;28;20258;-71
2023/08/04 00:55:47;;;;;;;;;;;;;;;;;;5036883;28;20478;-74
2023/08/04 00:58:15;;;;;;;;;;;;;;;;;;5038083;28;20431;-73
2023/08/04 01:00:40;;;;;;;;;;;;;;;;;;5034578;28;20163;-74
2023/08/04 01:03:08;;;;;;;;;;;;;;;;;;5054974;28;19925;-72
2023/08/04 01:05:33;;;;;;;;;;;;;;;;;;5036683;28;20097;-72
2023/08/04 01:07:58;;;;;;;;;;;;;;;;;;5037598;28;19937;-73
2023/08/04 01:10:24;;;;;;;;;;;;;;;;;;5054255;28;20616;-72
2023/08/04 01:12:51;;;;;;;;;;;;;;;;;;5018591;28;19959;-73
2023/08/04 01:15:19;;;;;;;;;;;;;;;;;;5035342;28;19955;-72
2023/08/04 01:17:44;;;;;;;;;;;;;;;;;;5038041;28;20014;-72
2023/08/04 01:20:10;;;;;;;;;;;;;;;;;;5036308;28;20018;-71
2023/08/04 01:22:35;;;;;;;;;;;;;;;;;;5019144;28;19983;-72
2023/08/04 01:25:03;;;;;;;;;;;;;;;;;;5037408;28;20001;-73
2023/08/04 01:27:28;;;;;;;;;;;;;;;;;;5020946;28;19924;-73
2023/08/04 01:29:54;;;;;;;;;;;;;;;;;;5034825;28;19916;-73
2023/08/04 01:32:19;;;;;;;;;;;;;;;;;;5056770;28;19920;-72
2023/08/04 01:34:47;;;;;;;;;;;;;;;;;;5035945;28;19935;-73
2023/08/04 01:37:18;;;;;;;;;;;;;;;;;;5034608;28;20500;-72
2023/08/04 01:39:46;;;;;;;;;;;;;;;;;;5018505;28;19943;-72
2023/08/04 01:42:11;;;;;;;;;;;;;;;;;;5036795;28;19921;-72
2023/08/04 01:44:39;;;;;;;;;;;;;;;;;;5053086;28;19939;-73
2023/08/04 01:47:05;;;;;;;;;;;;;;;;;;5037160;28;21533;-72
2023/08/04 01:49:33;;;;;;;;;;;;;;;;;;5033926;28;19916;-72
2023/08/04 01:52:01;;;;;;;;;;;;;;;;;;5036132;28;20489;-72
2023/08/04 01:54:29;;;;;;;;;;;;;;;;;;5035653;28;19921;-72
2023/08/04 01:56:57;;;;;;;;;;;;;;;;;;5017693;28;20577;-73
2023/08/04 01:59:22;;;;;;;;;;;;;;;;;;5037001;28;19923;-72
2023/08/04 02:01:47;;;;;;;;;;;;;;;;;;5034299;28;19924;-72
2023/08/04 02:04:13;;;;;;;;;;;;;;;;;;5036095;28;19915;-73
2023/08/04 02:06:38;;;;;;;;;;;;;;;;;;5036217;28;20001;-72
2023/08/04 02:09:06;;;;;;;;;;;;;;;;;;5044489;28;19920;-73
2023/08/04 02:11:31;;;;;;;;;;;;;;;;;;5036423;28;19916;-73
2023/08/04 02:14:00;;;;;;;;;;;;;;;;;;5052506;28;19959;-74
2023/08/04 02:16:25;;;;;;;;;;;;;;;;;;5019082;28;20007;-73
2023/08/04 02:18:50;;;;;;;;;;;;;;;;;;5052002;28;21579;-74
2023/08/04 02:21:21;;;;;;;;;;;;;;;;;;5021046;28;19920;-74
2023/08/04 02:23:49;;;;;;;;;;;;;;;;;;5033244;28;19989;-73
2023/08/04 02:26:17;;;;;;;;;;;;;;;;;;5037135;28;20588;-73
2023/08/04 02:28:49;;;;;;;;;;;;;;;;;;5054003;28;19920;-73
2023/08/04 02:31:17;;;;;;;;;;;;;;;;;;5036370;28;19916;-74
2023/08/04 02:33:42;;;;;;;;;;;;;;;;;;5034053;28;19991;-78
2023/08/04 02:36:10;;;;;;;;;;;;;;;;;;5035980;28;19939;-74
2023/08/04 02:38:40;;;;;;;;;;;;;;;;;;5018022;28;19920;-73
2023/08/04 02:41:06;;;;;;;;;;;;;;;;;;5034593;28;19959;-74
2023/08/04 02:43:31;;;;;;;;;;;;;;;;;;5036058;28;20035;-73
2023/08/04 02:46:00;;;;;;;;;;;;;;;;;;5018184;28;20194;-73
2023/08/04 02:48:26;;;;;;;;;;;;;;;;;;5037269;28;19924;-74
2023/08/04 02:50:51;;;;;;;;;;;;;;;;;;5053822;28;20160;-75
2023/08/04 02:53:19;;;;;;;;;;;;;;;;;;5018783;28;19927;-74
2023/08/04 02:55:47;;;;;;;;;;;;;;;;;;5034056;28;20222;-74
2023/08/04 02:58:15;;;;;;;;;;;;;;;;;;5035974;28;20640;-79
2023/08/04 03:00:40;;;;;;;;;;;;;;;;;;5017162;28;20517;-74
2023/08/04 03:03:05;;;;;;;;;;;;;;;;;;5055778;28;19924;-74
2023/08/04 03:05:33;;;;;;;;;;;;;;;;;;5018341;28;19970;-74
2023/08/04 03:07:59;;;;;;;;;;;;;;;;;;5036736;28;19920;-73
2023/08/04 03:10:27;;;;;;;;;;;;;;;;;;5038682;28;20014;-73
2023/08/04 03:12:52;;;;;;;;;;;;;;;;;;5039273;28;20011;-73
2023/08/04 03:15:20;;;;;;;;;;;;;;;;;;5039693;28;19920;-74
2023/08/04 03:17:45;;;;;;;;;;;;;;;;;;5038523;28;19920;-74
2023/08/04 03:20:13;;;;;;;;;;;;;;;;;;5055933;28;19916;-73
2023/08/04 03:22:38;;;;;;;;;;;;;;;;;;5018295;28;19945;-72
2023/08/04 03:25:06;;;;;;;;;;;;;;;;;;5039526;28;20352;-73
2023/08/04 03:27:34;;;;;;;;;;;;;;;;;;5022950;28;20108;-73
2023/08/04 03:30:02;;;;;;;;;;;;;;;;;;5057965;28;19951;-73
2023/08/04 03:32:27;;;;;;;;;;;;;;;;;;5023422;28;20262;-74
2023/08/04 03:34:58;;;;;;;;;;;;;;;;;;5036840;28;19990;-73
2023/08/04 03:37:26;;;;;;;;;;;;;;;;;;5055893;28;19920;-73
2023/08/04 03:39:51;;;;;;;;;;;;;;;;;;5037148;28;19920;-73
2023/08/04 03:42:17;;;;;;;;;;;;;;;;;;5039416;28;19921;-72
2023/08/04 03:44:47;;;;;;;;;;;;;;;;;;5038677;28;20039;-72
2023/08/04 03:47:13;;;;;;;;;;;;;;;;;;5022631;28;19992;-72
2023/08/04 03:49:38;;;;;;;;;;;;;;;;;;5037402;28;19955;-71
2023/08/04 03:52:03;;;;;;;;;;;;;;;;;;5056895;28;19987;-72
2023/08/04 03:54:29;;;;;;;;;;;;;;;;;;5022725;28;19924;-73
2023/08/04 03:56:54;;;;;;;;;;;;;;;;;;5038050;28;20777;-72
2023/08/04 03:59:19;;;;;;;;;;;;;;;;;;5022168;28;19927;-72
2023/08/04 04:01:44;;;;;;;;;;;;;;;;;;5037413;28;19932;-73
2023/08/04 04:04:12;;;;;;;;;;;;;;;;;;5056788;28;19924;-73
2023/08/04 04:06:38;;;;;;;;;;;;;;;;;;5038028;28;20380;-73
2023/08/04 04:09:03;;;;;;;;;;;;;;;;;;5017579;28;19916;-74
2023/08/04 04:11:31;;;;;;;;;;;;;;;;;;5035399;28;19927;-73
2023/08/04 04:13:57;;;;;;;;;;;;;;;;;;5054615;28;19930;-73
2023/08/04 04:16:28;;;;;;;;;;;;;;;;;;5038931;28;20619;-73
2023/08/04 04:18:53;;;;;;;;;;;;;;;;;;5020484;28;19928;-73
2023/08/04 04:21:18;;;;;;;;;;;;;;;;;;5019516;28;19923;-73
2023/08/04 04:23:46;;;;;;;;;;;;;;;;;;5053564;28;20048;-73
2023/08/04 04:26:11;;;;;;;;;;;;;;;;;;5052556;28;19928;-72
2023/08/04 04:28:37;;;;;;;;;;;;;;;;;;5022120;28;19916;-73
2023/08/04 04:31:05;;;;;;;;;;;;;;;;;;5038170;28;19920;-74
2023/08/04 04:33:30;;;;;;;;;;;;;;;;;;5039342;28;19920;-74
2023/08/04 04:35:56;;;;;;;;;;;;;;;;;;5019603;28;19928;-74
2023/08/04 04:38:21;;;;;;;;;;;;;;;;;;5023093;28;20409;-73
2023/08/04 04:40:46;;;;;;;;;;;;;;;;;;5019946;28;20367;-74
2023/08/04 04:43:11;;;;;;;;;;;;;;;;;;5056356;28;21986;-73
2023/08/04 04:45:40;;;;;;;;;;;;;;;;;;5056425;28;20224;-73
2023/08/04 04:48:06;;;;;;;;;;;;;;;;;;5038635;28;20162;-73
2023/08/04 04:50:33;;;;;;;;;;;;;;;;;;5020779;28;19920;-73
2023/08/04 04:53:01;;;;;;;;;;;;;;;;;;5037927;28;19927;-73
2023/08/04 04:55:31;;;;;;;;;;;;;;;;;;5038309;28;20322;-73
2023/08/04 04:57:56;;;;;;;;;;;;;;;;;;5036775;28;19924;-73
2023/08/04 05:00:24;;;;;;;;;;;;;;;;;;5057198;28;19973;-73
2023/08/04 05:02:50;;;;;;;;;;;;;;;;;;5017156;28;19920;-73
2023/08/04 05:05:20;;;;;;;;;;;;;;;;;;5038402;28;19923;-73
2023/08/04 05:07:46;;;;;;;;;;;;;;;;;;5055787;28;19927;-73
2023/08/04 05:10:13;;;;;;;;;;;;;;;;;;5021115;28;19920;-73
2023/08/04 05:12:41;;;;;;;;;;;;;;;;;;5018391;28;19927;-73
2023/08/04 05:15:10;;;;;;;;;;;;;;;;;;5053186;28;20293;-73
2023/08/04 05:17:38;;;;;;;;;;;;;;;;;;5022387;28;20026;-74
2023/08/04 05:20:06;;;;;;;;;;;;;;;;;;5035184;28;20487;-73
2023/08/04 05:22:32;;;;;;;;;;;;;;;;;;5037731;28;19935;-74
2023/08/04 05:24:59;;;;;;;;;;;;;;;;;;5054108;28;20447;-73
2023/08/04 05:27:27;;;;;;;;;;;;;;;;;;5035913;28;19952;-73
2023/08/04 05:29:52;;;;;;;;;;;;;;;;;;5019680;28;19915;-73
2023/08/04 05:32:20;;;;;;;;;;;;;;;;;;5025172;28;21763;-74
2023/08/04 05:34:48;;;;;;;;;;;;;;;;;;5036886;28;19989;-72
2023/08/04 05:37:16;;;;;;;;;;;;;;;;;;5036775;28;20025;-73
2023/08/04 05:39:44;;;;;;;;;;;;;;;;;;5036845;28;19980;-73
2023/08/04 05:42:09;;;;;;;;;;;;;;;;;;5032412;28;19928;-73
2023/08/04 05:44:34;;;;;;;;;;;;;;;;;;5035756;28;20447;-73
2023/08/04 05:46:59;;;;;;;;;;;;;;;;;;5315479;22;19932;-73
2023/08/04 05:49:25;;;;;;;;;;;;;;;;;;5076402;28;19920;-73
2023/08/04 05:51:52;;;;;;;;;;;;;;;;;;5060008;28;20450;-73
2023/08/04 05:54:20;;;;;;;;;;;;;;;;;;5078243;28;19994;-73
2023/08/04 05:56:45;;;;;;;;;;;;;;;;;;5072907;28;19921;-73
2023/08/04 05:59:13;;;;;;;;;;;;;;;;;;5040693;28;19924;-73
2023/08/04 06:01:44;;;;;;;;;;;;;;;;;;5055830;28;19928;-73
2023/08/04 06:04:12;;;;;;;;;;;;;;;;;;5071833;28;20108;-72
2023/08/04 06:06:40;;;;;;;;;;;;;;;;;;5044994;28;19968;-76
2023/08/04 06:09:07;;;;;;;;;;;;;;;;;;5044517;28;19916;-73
2023/08/04 06:11:35;;;;;;;;;;;;;;;;;;5036888;28;20428;-72
2023/08/04 06:14:01;;;;;;;;;;;;;;;;;;5070816;28;20470;-74
2023/08/04 06:16:28;;;;;;;;;;;;;;;;;;5077751;28;19921;-72
2023/08/04 06:18:54;;;;;;;;;;;;;;;;;;5041804;28;19927;-73
2023/08/04 06:21:19;;;;;;;;;;;;;;;;;;5057655;28;19924;-76
2023/08/04 06:23:47;;;;;;;;;;;;;;;;;;5038565;28;20015;-71
2023/08/04 06:26:13;;;;;;;;;;;;;;;;;;5077363;28;20311;-72
2023/08/04 06:28:40;;;;;;;;;;;;;;;;;;5044328;28;19927;-72
2023/08/04 06:31:06;;;;;;;;;;;;;;;;;;5037471;28;19917;-72
2023/08/04 06:33:34;;;;;;;;;;;;;;;;;;5075988;28;19921;-72
2023/08/04 06:35:59;;;;;;;;;;;;;;;;;;5076993;28;20350;-73
2023/08/04 06:38:24;;;;;;;;;;;;;;;;;;5075705;28;20007;-73
2023/08/04 06:40:49;;;;;;;;;;;;;;;;;;5044010;28;19920;-75
2023/08/04 06:43:17;;;;;;;;;;;;;;;;;;5035859;28;19942;-72
2023/08/04 06:45:45;;;;;;;;;;;;;;;;;;5077604;28;20326;-71
2023/08/04 06:48:11;;;;;;;;;;;;;;;;;;5077605;28;19928;-72
2023/08/04 06:50:39;;;;;;;;;;;;;;;;;;5042941;28;19926;-72
2023/08/04 06:53:05;;;;;;;;;;;;;;;;;;5036678;28;19916;-75
2023/08/04 06:55:30;;;;;;;;;;;;;;;;;;5044683;28;19920;-73
2023/08/04 06:57:58;;;;;;;;;;;;;;;;;;5046271;28;20477;-73
2023/08/04 07:00:23;;;;;;;;;;;;;;;;;;5037345;28;20421;-74
2023/08/04 07:02:49;;;;;;;;;;;;;;;;;;5037698;28;19927;-73
2023/08/04 07:05:14;;;;;;;;;;;;;;;;;;5076610;28;19956;-73
2023/08/04 07:07:40;;;;;;;;;;;;;;;;;;5046700;28;19952;-71
2023/08/04 07:10:05;;;;;;;;;;;;;;;;;;5043038;28;19917;-72
2023/08/04 07:12:30;;;;;;;;;;;;;;;;;;5041193;28;19994;-72
2023/08/04 07:14:56;;;;;;;;;;;;;;;;;;5021420;28;19920;-73
2023/08/04 07:17:21;;;;;;;;;;;;;;;;;;5043802;28;20367;-73
2023/08/04 07:19:49;;;;;;;;;;;;;;;;;;5037214;28;20223;-72
2023/08/04 07:22:17;;;;;;;;;;;;;;;;;;5035650;28;19932;-72
2023/08/04 07:24:47;;;;;;;;;;;;;;;;;;5030503;28;21503;-73
2023/08/04 07:27:15;;;;;;;;;;;;;;;;;;5038289;28;20283;-78
2023/08/04 07:29:43;;;;;;;;;;;;;;;;;;5020880;28;19927;-72
2023/08/04 07:32:08;;;;;;;;;;;;;;;;;;5043848;28;20824;-72
2023/08/04 07:34:33;;;;;;;;;;;;;;;;;;5043129;28;19917;-71
2023/08/04 07:37:01;;;;;;;;;;;;;;;;;;5028699;28;20437;-71
2023/08/04 07:39:26;;;;;;;;;;;;;;;;;;5045123;28;19920;-72
2023/08/04 07:41:51;;;;;;;;;;;;;;;;;;5042073;28;20044;-72
2023/08/04 07:44:17;;;;;;;;;;;;;;;;;;5041502;28;20007;-72
2023/08/04 07:46:42;;;;;;;;;;;;;;;;;;5044391;28;20003;-72
2023/08/04 07:49:07;;;;;;;;;;;;;;;;;;5062708;28;19928;-74
2023/08/04 07:51:36;;;;;;;;;;;;;;;;;;5044027;28;20011;-73
2023/08/04 07:54:03;;;;;;;;;;;;;;;;;;5046222;28;19916;-79
2023/08/04 07:56:29;;;;;;;;;;;;;;;;;;5047554;28;20333;-71
2023/08/04 07:58:56;;;;;;;;;;;;;;;;;;5068174;28;19963;-75
2023/08/04 08:01:24;;;;;;;;;;;;;;;;;;5046773;28;19920;-75
2023/08/04 08:03:50;;;;;;;;;;;;;;;;;;5067021;28;20389;-71
2023/08/04 08:06:15;;;;;;;;;;;;;;;;;;5046358;28;20011;-70
2023/08/04 08:08:43;;;;;;;;;;;;;;;;;;5047189;28;20050;-70
2023/08/04 08:11:09;;;;;;;;;;;;;;;;;;5057393;28;21122;-70
2023/08/04 08:13:34;;;;;;;;;;;;;;;;;;5043311;28;19986;-69
2023/08/04 08:15:59;;;;;;;;;;;;;;;;;;5048132;28;20566;-68
2023/08/04 08:18:25;;;;;;;;;;;;;;;;;;5047298;28;19927;-68
2023/08/04 08:20:52;;;;;;;;;;;;;;;;;;5066223;28;19970;-69
2023/08/04 08:23:18;;;;;;;;;;;;;;;;;;5067975;28;20018;-68
2023/08/04 08:25:43;;;;;;;;;;;;;;;;;;5067358;28;19920;-72
2023/08/04 08:28:08;;;;;;;;;;;;;;;;;;5043361;28;19916;-74
2023/08/04 08:30:34;;;;;;;;;;;;;;;;;;5063542;28;20017;-72
2023/08/04 08:32:59;;;;;;;;;;;;;;;;;;5066251;28;19923;-70
2023/08/04 08:35:24;;;;;;;;;;;;;;;;;;5048370;28;20299;-70
2023/08/04 08:37:50;;;;;;;;;;;;;;;;;;5081308;28;19920;-70
2023/08/04 08:40:15;;;;;;;;;;;;;;;;;;5041874;28;20170;-72
2023/08/04 08:42:41;;;;;;;;;;;;;;;;;;5046741;28;20315;-68
2023/08/04 08:45:06;;;;;;;;;;;;;;;;;;5041564;28;19923;-69
2023/08/04 08:47:31;;;;;;;;;;;;;;;;;;5067144;28;20419;-70
2023/08/04 08:49:57;;;;;;;;;;;;;;;;;;5066722;28;19924;-69
2023/08/04 08:52:22;;;;;;;;;;;;;;;;;;5033057;28;22090;-70
2023/08/04 08:54:50;;;;;;;;;;;;;;;;;;5063568;28;19927;-70
2023/08/04 08:57:17;;;;;;;;;;;;;;;;;;5046093;28;19953;-71
2023/08/04 08:59:45;;;;;;;;;;;;;;;;;;5026190;28;19920;-72
2023/08/04 09:02:11;;;;;;;;;;;;;;;;;;5062842;28;20144;-74
2023/08/04 09:04:37;;;;;;;;;;;;;;;;;;5024011;28;19955;-74
2023/08/04 09:07:05;;;;;;;;;;;;;;;;;;5048515;28;19920;-74
2023/08/04 09:09:31;;;;;;;;;;;;;;;;;;5025930;28;19969;-75
2023/08/04 09:11:59;;;;;;;;;;;;;;;;;;5064253;28;20963;-73
2023/08/04 09:14:27;;;;;;;;;;;;;;;;;;5050817;28;20637;-77
2023/08/04 09:16:52;;;;;;;;;;;;;;;;;;5067377;28;19920;-77
2023/08/04 09:19:21;;;;;;;;;;;;;;;;;;5047882;28;19961;-78
2023/08/04 09:21:46;;;;;;;;;;;;;;;;;;5066802;28;20416;-76
2023/08/04 09:24:13;;;;;;;;;;;;;;;;;;5067710;28;19920;-74
2023/08/04 09:26:38;;;;;;;;;;;;;;;;;;5025016;28;19917;-76
2023/08/04 09:29:03;;;;;;;;;;;;;;;;;;5031018;28;19920;-79
2023/08/04 09:31:29;;;;;;;;;;;;;;;;;;5041202;28;19916;-79
2023/08/04 09:33:54;;;;;;;;;;;;;;;;;;5063626;28;20020;-79
2023/08/04 09:36:19;;;;;;;;;;;;;;;;;;5045553;28;20023;-78
2023/08/04 09:38:44;;;;;;;;;;;;;;;;;;5047197;28;19917;-76
2023/08/04 09:41:10;;;;;;;;;;;;;;;;;;5065458;28;19920;-78
2023/08/04 09:43:35;;;;;;;;;;;;;;;;;;5045564;28;19920;-79
2023/08/04 09:46:00;;;;;;;;;;;;;;;;;;5063231;28;21120;-79
2023/08/04 09:48:29;;;;;;;;;;;;;;;;;;5064539;28;19928;-77
2023/08/04 09:50:54;;;;;;;;;;;;;;;;;;5079621;28;20232;-78
2023/08/04 09:53:19;;;;;;;;;;;;;;;;;;5080333;28;20516;-80
2023/08/04 09:55:45;;;;;;;;;;;;;;;;;;5024836;28;19917;-78
2023/08/04 09:58:10;;;;;;;;;;;;;;;;;;5063057;28;19951;-78
2023/08/04 10:00:35;;;;;;;;;;;;;;;;;;5064609;28;19988;-77
2023/08/04 10:03:00;;;;;;;;;;;;;;;;;;5041208;28;19986;-78
2023/08/04 10:05:26;;;;;;;;;;;;;;;;;;5064391;28;20037;-80
2023/08/04 10:07:51;;;;;;;;;;;;;;;;;;5023766;28;19922;-78
2023/08/04 10:10:16;;;;;;;;;;;;;;;;;;5043353;28;19926;-78
2023/08/04 10:12:42;;;;;;;;;;;;;;;;;;5080209;28;19934;-75
2023/08/04 10:15:12;;;;;;;;;;;;;;;;;;5023103;28;19920;-78
2023/08/04 10:17:40;;;;;;;;;;;;;;;;;;5079795;28;19915;-76
2023/08/04 10:20:08;;;;;;;;;;;;;;;;;;5076207;28;19916;-77
2023/08/04 10:22:33;;;;;;;;;;;;;;;;;;5039295;28;20397;-74
2023/08/04 10:25:03;;;;;;;;;;;;;;;;;;5045704;28;19920;-77
2023/08/04 10:27:31;;;;;;;;;;;;;;;;;;5042928;28;19966;-77
2023/08/04 10:29:56;;;;;;;;;;;;;;;;;;5023338;28;19916;-72
2023/08/04 10:32:24;;;;;;;;;;;;;;;;;;5064914;28;19924;-73
2023/08/04 10:34:54;;;;;;;;;;;;;;;;;;5031915;28;19928;-73
2023/08/04 10:37:24;;;;;;;;;;;;;;;;;;5044848;28;19927;-72
2023/08/04 10:39:50;;;;;;;;;;;;;;;;;;5079150;28;19973;-72
2023/08/04 10:42:15;;;;;;;;;;;;;;;;;;5027079;28;19919;-74
2023/08/04 10:44:43;;;;;;;;;;;;;;;;;;5046678;28;20482;-72
2023/08/04 10:47:11;;;;;;;;;;;;;;;;;;5021896;28;19928;-71
2023/08/04 10:49:37;;;;;;;;;;;;;;;;;;5061576;28;21371;-74
2023/08/04 10:52:02;;;;;;;;;;;;;;;;;;5048502;28;19928;-72
2023/08/04 10:54:30;;;;;;;;;;;;;;;;;;5045275;28;19981;-72
2023/08/04 10:56:58;;;;;;;;;;;;;;;;;;5061126;28;20054;-72
2023/08/04 10:59:25;;;;;;;;;;;;;;;;;;5039082;28;20456;-73
2023/08/04 11:01:51;;;;;;;;;;;;;;;;;;5079407;28;20402;-71
2023/08/04 11:04:16;;;;;;;;;;;;;;;;;;5064138;28;19920;-73
2023/08/04 11:06:45;;;;;;;;;;;;;;;;;;5043749;28;19928;-73
2023/08/04 11:09:10;;;;;;;;;;;;;;;;;;5078993;28;20306;-71
2023/08/04 11:11:35;;;;;;;;;;;;;;;;;;5039241;28;19920;-71
2023/08/04 11:14:03;;;;;;;;;;;;;;;;;;5024306;28;19973;-73
2023/08/04 11:16:32;;;;;;;;;;;;;;;;;;5043635;28;20614;-79
2023/08/04 11:19:00;;;;;;;;;;;;;;;;;;5023147;28;19972;-72
2023/08/04 11:21:28;;;;;;;;;;;;;;;;;;5076723;28;20393;-72
2023/08/04 11:23:59;;;;;;;;;;;;;;;;;;5060657;28;22041;-73
2023/08/04 11:26:24;;;;;;;;;;;;;;;;;;5025456;28;19920;-71
2023/08/04 11:28:49;;;;;;;;;;;;;;;;;;5023286;28;19973;-72
2023/08/04 11:31:17;;;;;;;;;;;;;;;;;;5042002;28;19966;-76
2023/08/04 11:33:45;;;;;;;;;;;;;;;;;;5047874;28;19924;-70
2023/08/04 11:36:13;;;;;;;;;;;;;;;;;;5081338;28;19931;-71
2023/08/04 11:38:41;;;;;;;;;;;;;;;;;;5046517;28;19920;-70
2023/08/04 11:41:06;;;;;;;;;;;;;;;;;;5069410;28;20011;-74
2023/08/04 11:43:31;;;;;;;;;;;;;;;;;;5042868;28;20414;-74
2023/08/04 11:46:00;;;;;;;;;;;;;;;;;;5077654;28;19920;-74
2023/08/04 11:48:28;;;;;;;;;;;;;;;;;;5046843;28;19950;-73
2023/08/04 11:50:54;;;;;;;;;;;;;;;;;;5034843;28;20371;-71
2023/08/04 11:53:19;;;;;;;;;;;;;;;;;;5043240;28;19924;-71
2023/08/04 11:55:45;;;;;;;;;;;;;;;;;;5059825;28;19923;-77
2023/08/04 11:58:10;;;;;;;;;;;;;;;;;;5026692;28;20272;-70
2023/08/04 12:00:38;;;;;;;;;;;;;;;;;;5046285;28;19978;-71
2023/08/04 12:03:06;;;;;;;;;;;;;;;;;;5047249;28;20161;-71
2023/08/04 12:05:31;;;;;;;;;;;;;;;;;;5042094;28;20386;-70
2023/08/04 12:07:56;;;;;;;;;;;;;;;;;;5026436;28;20359;-70
2023/08/04 12:10:23;;;;;;;;;;;;;;;;;;5080193;28;20057;-76
2023/08/04 12:12:49;;;;;;;;;;;;;;;;;;5044158;28;19953;-70
2023/08/04 12:15:14;;;;;;;;;;;;;;;;;;5064580;28;20004;-71
2023/08/04 12:17:39;;;;;;;;;;;;;;;;;;5022639;28;19920;-71
2023/08/04 12:20:08;;;;;;;;;;;;;;;;;;5080582;28;20001;-72
2023/08/04 12:22:33;;;;;;;;;;;;;;;;;;5046242;28;20098;-73
2023/08/04 12:24:58;;;;;;;;;;;;;;;;;;5062811;28;20403;-75
2023/08/04 12:27:28;;;;;;;;;;;;;;;;;;5046433;28;20511;-70
2023/08/04 12:29:56;;;;;;;;;;;;;;;;;;5067465;28;19971;-70
2023/08/04 12:32:24;;;;;;;;;;;;;;;;;;5065939;28;19924;-73
2023/08/04 12:34:50;;;;;;;;;;;;;;;;;;5048394;28;20292;-71
2023/08/04 12:37:15;;;;;;;;;;;;;;;;;;5046742;28;19920;-70
2023/08/04 12:39:40;;;;;;;;;;;;;;;;;;5044882;28;19917;-72
2023/08/04 12:42:05;;;;;;;;;;;;;;;;;;5079389;28;19926;-69
2023/08/04 12:44:31;;;;;;;;;;;;;;;;;;5033482;28;20381;-69
2023/08/04 12:46:58;;;;;;;;;;;;;;;;;;5078404;28;21386;-69
2023/08/04 12:49:24;;;;;;;;;;;;;;;;;;5042502;28;19923;-70
2023/08/04 12:51:49;;;;;;;;;;;;;;;;;;5023296;28;20597;-73
2023/08/04 12:54:14;;;;;;;;;;;;;;;;;;5081104;28;21584;-72
2023/08/04 12:56:40;;;;;;;;;;;;;;;;;;5063294;28;19920;-69
2023/08/04 12:59:07;;;;;;;;;;;;;;;;;;5024361;28;19916;-72
2023/08/04 13:01:33;;;;;;;;;;;;;;;;;;5046339;28;20247;-77
2023/08/04 13:03:58;;;;;;;;;;;;;;;;;;5042295;28;19942;-71
2023/08/04 13:06:23;;;;;;;;;;;;;;;;;;5025206;28;19917;-71
2023/08/04 13:08:51;;;;;;;;;;;;;;;;;;5044580;28;20334;-70
2023/08/04 13:11:16;;;;;;;;;;;;;;;;;;5064661;28;19926;-72
2023/08/04 13:13:42;;;;;;;;;;;;;;;;;;5046176;28;19924;-70
2023/08/04 13:16:07;;;;;;;;;;;;;;;;;;5024569;28;20547;-69
2023/08/04 13:18:32;;;;;;;;;;;;;;;;;;5046439;28;19916;-70
2023/08/04 13:21:00;;;;;;;;;;;;;;;;;;5080624;28;19977;-72
2023/08/04 13:23:26;;;;;;;;;;;;;;;;;;5046112;28;19981;-70
2023/08/04 13:25:51;;;;;;;;;;;;;;;;;;5023363;28;21110;-69
2023/08/04 13:28:21;;;;;;;;;;;;;;;;;;5049164;28;19916;-72
2023/08/04 13:30:49;;;;;;;;;;;;;;;;;;5051358;28;19931;-76
2023/08/04 13:33:14;;;;;;;;;;;;;;;;;;5029923;28;20401;-72
2023/08/04 13:35:40;;;;;;;;;;;;;;;;;;5081231;28;19916;-75
2023/08/04 13:38:05;;;;;;;;;;;;;;;;;;5049121;28;19935;-74
2023/08/04 13:40:33;;;;;;;;;;;;;;;;;;5037100;28;19924;-75
2023/08/04 13:43:01;;;;;;;;;;;;;;;;;;5067717;28;19920;-75
2023/08/04 13:45:31;;;;;;;;;;;;;;;;;;5052370;28;19968;-77
2023/08/04 13:47:56;;;;;;;;;;;;;;;;;;5049320;28;19952;-74
2023/08/04 13:50:21;;;;;;;;;;;;;;;;;;5064397;28;20008;-76
2023/08/04 13:52:49;;;;;;;;;;;;;;;;;;5076481;28;20496;-74
2023/08/04 13:55:15;;;;;;;;;;;;;;;;;;5025502;28;19916;-76
2023/08/04 13:57:40;;;;;;;;;;;;;;;;;;5047000;28;19924;-77
2023/08/04 14:00:10;;;;;;;;;;;;;;;;;;5066235;28;19939;-73
2023/08/04 14:02:36;;;;;;;;;;;;;;;;;;5047005;28;20007;-76
2023/08/04 14:05:01;;;;;;;;;;;;;;;;;;5041125;28;20389;-78
2023/08/04 14:07:26;;;;;;;;;;;;;;;;;;5062930;28;20347;-77
2023/08/04 14:09:52;;;;;;;;;;;;;;;;;;5045884;28;19920;-74
2023/08/04 14:12:17;;;;;;;;;;;;;;;;;;5023842;28;19920;-76
2023/08/04 14:14:42;;;;;;;;;;;;;;;;;;5033632;28;20493;-77
2023/08/04 14:17:08;;;;;;;;;;;;;;;;;;5025237;28;19916;-79
2023/08/04 14:19:33;;;;;;;;;;;;;;;;;;5062558;28;19920;-76
2023/08/04 14:21:59;;;;;;;;;;;;;;;;;;5061463;28;19916;-79
2023/08/04 14:24:24;;;;;;;;;;;;;;;;;;5024026;28;20377;-78
2023/08/04 14:26:49;;;;;;;;;;;;;;;;;;5023610;28;19920;-76
2023/08/04 14:29:15;;;;;;;;;;;;;;;;;;5046264;28;20272;-76
2023/08/04 14:31:40;;;;;;;;;;;;;;;;;;5029105;28;19920;-75
2023/08/04 14:34:06;;;;;;;;;;;;;;;;;;5039090;28;20282;-74
2023/08/04 14:36:34;;;;;;;;;;;;;;;;;;5078719;28;19927;-75
2023/08/04 14:39:00;;;;;;;;;;;;;;;;;;5024430;28;19920;-72
2023/08/04 14:41:30;;;;;;;;;;;;;;;;;;5078007;28;20025;-73
2023/08/04 14:43:56;;;;;;;;;;;;;;;;;;5039994;28;21803;-73
2023/08/04 14:46:21;;;;;;;;;;;;;;;;;;5040515;28;19916;-73
2023/08/04 14:48:49;;;;;;;;;;;;;;;;;;5043013;28;21553;-74
2023/08/04 14:51:14;;;;;;;;;;;;;;;;;;5038162;28;20330;-74
2023/08/04 14:53:42;;;;;;;;;;;;;;;;;;5038827;28;20066;-76
2023/08/04 14:56:07;;;;;;;;;;;;;;;;;;5019939;28;20326;-75
2023/08/04 14:58:35;;;;;;;;;;;;;;;;;;5043835;28;19920;-73
2023/08/04 15:01:04;;;;;;;;;;;;;;;;;;5020902;28;20429;-74
2023/08/04 15:03:36;;;;;;;;;;;;;;;;;;5030622;28;19920;-74
2023/08/04 15:06:04;;;;;;;;;;;;;;;;;;5036925;28;19923;-73
2023/08/04 15:08:29;;;;;;;;;;;;;;;;;;5044633;28;19970;-73
2023/08/04 15:10:56;;;;;;;;;;;;;;;;;;5020869;28;19918;-73
2023/08/04 15:13:24;;;;;;;;;;;;;;;;;;5021435;28;19931;-72
2023/08/04 15:15:50;;;;;;;;;;;;;;;;;;5043038;28;19920;-73
2023/08/04 15:18:15;;;;;;;;;;;;;;;;;;5043411;28;19920;-71
2023/08/04 15:20:40;;;;;;;;;;;;;;;;;;5044301;28;20508;-72
2023/08/04 15:23:07;;;;;;;;;;;;;;;;;;5046454;28;19920;-72
2023/08/04 15:25:35;;;;;;;;;;;;;;;;;;5029312;28;19973;-74
2023/08/04 15:28:00;;;;;;;;;;;;;;;;;;5029719;28;19923;-73
2023/08/04 15:30:29;;;;;;;;;;;;;;;;;;5028761;28;19921;-71
2023/08/04 15:32:54;;;;;;;;;;;;;;;;;;5028938;28;19984;-72
2023/08/04 15:35:21;;;;;;;;;;;;;;;;;;5037946;28;20015;-73
2023/08/04 15:37:49;;;;;;;;;;;;;;;;;;5038388;28;20370;-72
2023/08/04 15:40:14;;;;;;;;;;;;;;;;;;5054471;28;20391;-71
2023/08/04 15:42:39;;;;;;;;;;;;;;;;;;5029479;28;20001;-71
2023/08/04 15:45:05;;;;;;;;;;;;;;;;;;5041882;28;20405;-73
2023/08/04 15:47:30;;;;;;;;;;;;;;;;;;5037316;28;19927;-71
2023/08/04 15:49:57;;;;;;;;;;;;;;;;;;5027792;28;19916;-71
2023/08/04 15:52:26;;;;;;;;;;;;;;;;;;5046763;28;19975;-71
2023/08/04 15:54:57;;;;;;;;;;;;;;;;;;5043261;28;20044;-71
2023/08/04 15:57:27;;;;;;;;;;;;;;;;;;5045457;28;20383;-73
2023/08/04 15:59:58;;;;;;;;;;;;;;;;;;5054365;28;19970;-72
2023/08/04 16:02:29;;;;;;;;;;;;;;;;;;5023863;28;19916;-71
2023/08/04 16:04:56;;;;;;;;;;;;;;;;;;5023549;28;20079;-70
2023/08/04 16:07:24;;;;;;;;;;;;;;;;;;5020457;28;20365;-72
2023/08/04 16:09:49;;;;;;;;;;;;;;;;;;5043191;28;19924;-71
2023/08/04 16:12:18;;;;;;;;;;;;;;;;;;5036755;28;19920;-71
2023/08/04 16:14:43;;;;;;;;;;;;;;;;;;5020437;28;19921;-70
2023/08/04 16:17:08;;;;;;;;;;;;;;;;;;5048397;28;20417;-72
2023/08/04 16:19:33;;;;;;;;;;;;;;;;;;5024150;28;20399;-71
2023/08/04 16:21:58;;;;;;;;;;;;;;;;;;5023468;28;19917;-70
2023/08/04 16:24:24;;;;;;;;;;;;;;;;;;5047779;28;20753;-71
2023/08/04 16:26:50;;;;;;;;;;;;;;;;;;5025775;28;20368;-69
2023/08/04 16:29:15;;;;;;;;;;;;;;;;;;5049921;28;19974;-70
2023/08/04 16:31:40;;;;;;;;;;;;;;;;;;5049889;28;20359;-71
2023/08/04 16:34:08;;;;;;;;;;;;;;;;;;5050296;28;20432;-71
2023/08/04 16:36:33;;;;;;;;;;;;;;;;;;5052527;28;19917;-78
2023/08/04 16:39:01;;;;;;;;;;;;;;;;;;5048556;28;20372;-71
2023/08/04 16:41:26;;;;;;;;;;;;;;;;;;5042249;28;20127;-70